Weather at Ojima Skyport

Public forecast

Using degrees Celsius for public forecast. Weather courtesy of forecast.io.

Closest aviation weather report (METAR) to Ojima Skyport

Report is more than 6 hours old.

Closest report is Iruma Air Base, 24.3 nm (45.0 km) S. Retrieved 2011/10/06 13:34 UTC (10 years ago):

RJTJ 061334Z VRB01KT 9999 FEW060 BKN080 18/15 Q1007 RMK 1SC060 5AC080 A2976

Closest aviation forecast (TAF) to Ojima Skyport

Forecast is more than 6 hours old.

Closest forecast is Yokota Air Base, 29.5 nm (54.7 km) S. Retrieved 2021/07/31 13:06 UTC (7 hours ago):

TAF RJTY 311300Z 3113/0119 VRB06KT 9999 SCT040 QNH2963INS TEMPO 3118/3122 6000 BR BKN010 BECMG 0103/0104 17012KT 9999 SCT030 QNH2962INS BECMG 0111/0112 VRB06KT 9999 SCT025 QNH2970INS TX35/0105Z TN22/3121Z LAST NO AMDS AFT 3113 NEXT 3121